Time;durP1;ratioP1;P1;durP2;ratioP2;P2;SDS_P1;SDS_P2;PMS_P1;PMS_P2;Temp;Humidity;BMP_temperature;BMP_pressure;BME280_temperature;BME280_humidity;BME280_pressure;Samples;Min_cycle;Max_cycle;Signal;HPM_P1;HPM_P2
2021/11/16 00:00:24;;;;;;;5.63;5.03;;;;;;;20.73;56.35;97893.06;4960394;28;20253;-65
2021/11/16 00:02:51;;;;;;;5.73;5.20;;;;;;;19.85;56.21;97729.59;4939478;28;20273;-68
2021/11/16 00:05:18;;;;;;;5.87;5.27;;;;;;;20.74;56.26;97874.38;4940823;28;20310;-66
2021/11/16 00:07:48;;;;;;;6.00;5.40;;;;;;;20.74;56.21;97874.38;4946053;28;20208;-67
2021/11/16 00:10:14;;;;;;;5.90;5.30;;;;;;;20.50;56.39;97829.13;4938816;28;20277;-68
2021/11/16 00:12:41;;;;;;;5.83;5.23;;;;;;;19.85;56.37;97715.19;4940566;28;20660;-66
2021/11/16 00:15:08;;;;;;;5.50;4.90;;;;;;;20.69;56.34;97852.88;4938493;28;20697;-67
2021/11/16 00:17:35;;;;;;;5.30;4.80;;;;;;;20.69;56.26;97857.13;4973056;28;20269;-66
2021/11/16 00:20:03;;;;;;;5.53;5.03;;;;;;;20.73;56.43;97869.19;4949604;28;20203;-68
2021/11/16 00:22:30;;;;;;;6.60;5.90;;;;;;;20.28;56.36;97780.66;4949970;28;20203;-68
2021/11/16 00:27:26;;;;;;;5.90;5.30;;;;;;;20.73;56.41;97859.88;4961342;28;20211;-65
2021/11/16 00:29:53;;;;;;;6.03;5.43;;;;;;;20.65;56.25;97851.03;4968094;28;20620;-66
2021/11/16 00:32:19;;;;;;;6.37;5.77;;;;;;;20.31;56.24;97796.94;4960601;28;20661;-66
2021/11/16 00:34:46;;;;;;;6.70;6.00;;;;;;;20.60;56.10;97844.88;4964701;28;20239;-65
2021/11/16 00:37:13;;;;;;;6.17;5.53;;;;;;;20.65;56.06;97848.47;4944724;28;20261;-65
2021/11/16 00:39:39;;;;;;;5.40;4.90;;;;;;;20.46;56.14;97817.94;4955380;28;20215;-66
2021/11/16 00:42:06;;;;;;;5.70;5.10;;;;;;;20.58;56.48;97840.53;4938001;28;20638;-66
2021/11/16 00:44:33;;;;;;;6.07;5.47;;;;;;;20.68;56.32;97861.34;4948854;28;20211;-66
2021/11/16 00:46:59;;;;;;;5.53;5.03;;;;;;;19.92;56.29;97729.91;4946905;28;20641;-68
2021/11/16 00:49:26;;;;;;;5.73;5.10;;;;;;;20.68;56.13;97863.03;4945174;28;20290;-65
2021/11/16 00:51:53;;;;;;;6.00;5.40;;;;;;;19.96;56.40;97741.09;4938870;28;20199;-66
2021/11/16 00:54:19;;;;;;;8.07;5.43;;;;;;;20.61;56.28;97845.75;4950777;28;20226;-65
2021/11/16 00:56:46;;;;;;;6.10;5.40;;;;;;;20.72;56.33;97870.03;4937275;28;20265;-65
2021/11/16 00:59:13;;;;;;;6.20;5.63;;;;;;;20.60;56.19;97851.69;4953883;28;20664;-66
2021/11/16 01:01:39;;;;;;;5.40;4.90;;;;;;;20.71;56.54;97869.13;4947799;28;20634;-66
2021/11/16 01:04:06;;;;;;;5.93;5.33;;;;;;;20.68;56.34;97873.25;4951206;28;20235;-65
2021/11/16 01:06:33;;;;;;;6.53;5.73;;;;;;;19.86;56.47;97736.44;4945979;28;20618;-66
2021/11/16 01:08:59;;;;;;;6.43;5.57;;;;;;;20.60;56.27;97854.22;4957007;28;20215;-68
2021/11/16 01:11:26;;;;;;;6.30;5.70;;;;;;;20.72;56.35;97870.88;4947132;28;20207;-65
2021/11/16 01:13:53;;;;;;;6.30;5.57;;;;;;;20.59;56.33;97847.38;4951663;28;20775;-65
2021/11/16 01:16:20;;;;;;;6.07;5.47;;;;;;;20.59;56.17;97848.25;4939553;28;20234;-65
2021/11/16 01:18:46;;;;;;;6.43;5.83;;;;;;;20.69;56.39;97855.44;4967307;28;20203;-66
2021/11/16 01:21:13;;;;;;;6.87;5.87;;;;;;;20.60;56.18;97844.88;4956674;28;20203;-65
2021/11/16 01:23:40;;;;;;;7.13;5.87;;;;;;;20.72;56.17;97867.47;4954480;28;20584;-66
2021/11/16 01:26:07;;;;;;;6.33;5.60;;;;;;;20.72;56.14;97862.34;4952378;28;20195;-66
2021/11/16 01:28:33;;;;;;;6.37;5.77;;;;;;;20.67;55.93;97851.97;4943332;28;20258;-66
2021/11/16 01:31:04;;;;;;;7.20;6.13;;;;;;;20.29;56.25;97790.91;4940591;28;20203;-68
2021/11/16 01:36:10;;;;;;;6.70;6.00;;;;;;;20.67;56.22;97858.75;4970800;28;20680;-65
2021/11/16 01:38:37;;;;;;;6.40;5.60;;;;;;;20.53;56.37;97830.13;4958791;28;20210;-68
2021/11/16 01:41:04;;;;;;;6.80;6.10;;;;;;;20.71;56.32;97863.16;4953311;28;20843;-66
2021/11/16 01:43:31;;;;;;;6.67;6.00;;;;;;;20.49;56.16;97820.59;4943310;28;20215;-68
2021/11/16 01:46:02;;;;;;;6.73;5.87;;;;;;;20.64;56.27;97844.19;4959247;28;20202;-68
2021/11/16 01:48:29;;;;;;;6.43;5.83;;;;;;;20.71;56.25;97860.59;4967308;28;20212;-65
2021/11/16 01:50:56;;;;;;;7.43;6.30;;;;;;;20.69;56.37;97855.44;4943642;28;20203;-65
2021/11/16 01:53:23;;;;;;;6.90;6.13;;;;;;;20.60;56.44;97834.66;4937556;28;20207;-65
2021/11/16 01:55:50;;;;;;;6.77;5.90;;;;;;;20.44;56.19;97823.81;4958983;28;20219;-68
2021/11/16 01:58:16;;;;;;;6.40;5.73;;;;;;;20.72;56.28;97870.03;4966483;28;20211;-69
2021/11/16 02:00:43;;;;;;;6.47;5.80;;;;;;;20.70;56.22;97872.53;4959910;28;20632;-65
2021/11/16 02:03:11;;;;;;;7.00;6.30;;;;;;;20.44;56.33;97829.78;4948410;28;20261;-69
2021/11/16 02:05:39;;;;;;;7.30;6.40;;;;;;;20.70;56.27;97872.53;4937515;28;20249;-67
2021/11/16 02:08:05;;;;;;;6.70;6.00;;;;;;;20.71;56.26;97874.25;4966601;28;20262;-65
2021/11/16 02:10:32;;;;;;;6.70;5.87;;;;;;;20.71;56.23;97870.81;4957895;28;20211;-65
2021/11/16 02:12:59;;;;;;;6.80;6.17;;;;;;;20.70;56.68;97862.31;4953518;28;20242;-67
2021/11/16 02:15:26;;;;;;;7.17;6.47;;;;;;;20.66;56.14;97850.19;4941204;28;20651;-66
2021/11/16 02:17:52;;;;;;;7.30;6.50;;;;;;;20.70;56.44;97861.41;4938269;28;20295;-65
2021/11/16 02:20:19;;;;;;;7.07;6.37;;;;;;;20.71;56.51;97863.16;4941108;28;20273;-66
2021/11/16 02:22:46;;;;;;;7.33;6.27;;;;;;;20.70;56.39;97861.41;4935237;28;20633;-65
2021/11/16 02:25:13;;;;;;;7.63;6.50;;;;;;;20.71;56.08;97865.69;4960273;28;20277;-67
2021/11/16 02:27:40;;;;;;;7.20;6.10;;;;;;;20.58;56.12;97836.31;4954446;28;20198;-67
2021/11/16 02:30:07;;;;;;;7.10;6.40;;;;;;;20.60;56.29;97834.66;4944473;28;20268;-66
2021/11/16 02:32:34;;;;;;;6.77;6.13;;;;;;;20.69;56.38;97847.75;4971962;28;20214;-67
2021/11/16 02:35:01;;;;;;;6.87;6.13;;;;;;;20.70;56.45;97841.00;4949690;28;20222;-65
2021/11/16 02:37:31;;;;;;;7.40;6.10;;;;;;;20.70;56.30;97849.53;4941252;28;20740;-67
2021/11/16 02:40:00;;;;;;;7.10;6.40;;;;;;;20.69;56.25;97855.44;4936269;28;20689;-65
2021/11/16 02:42:27;;;;;;;6.87;6.17;;;;;;;20.69;56.34;97855.44;4951049;28;20199;-69
2021/11/16 02:44:53;;;;;;;7.83;7.03;;;;;;;20.69;56.23;97863.09;4956035;28;20257;-65
2021/11/16 02:47:20;;;;;;;6.90;6.20;;;;;;;20.69;56.80;97857.97;4953147;28;20261;-64
2021/11/16 02:49:47;;;;;;;7.07;6.37;;;;;;;20.60;56.38;97826.16;4949191;28;20624;-65
2021/11/16 02:52:14;;;;;;;7.07;6.37;;;;;;;20.56;56.47;97825.16;4942276;28;20211;-68
2021/11/16 02:54:41;;;;;;;6.37;5.77;;;;;;;20.26;56.59;97774.59;4956363;28;20247;-65
2021/11/16 02:57:09;;;;;;;6.63;5.93;;;;;;;20.69;56.52;97855.44;4935697;28;20708;-67
2021/11/16 02:59:36;;;;;;;6.93;6.20;;;;;;;20.55;56.27;97833.63;4969409;28;20203;-66
2021/11/16 03:02:03;;;;;;;7.27;6.57;;;;;;;20.68;56.53;97851.16;4958051;28;20202;-65
2021/11/16 03:04:33;;;;;;;6.73;6.13;;;;;;;20.68;56.23;97846.03;4955655;28;20258;-67
2021/11/16 03:07:04;;;;;;;7.93;6.73;;;;;;;20.65;56.48;97845.03;4955474;28;20282;-65
2021/11/16 03:09:32;;;;;;;7.43;6.60;;;;;;;20.69;56.27;97852.03;4948886;28;20214;-68
2021/11/16 03:11:59;;;;;;;7.73;6.67;;;;;;;20.48;56.60;97807.78;4940828;28;20262;-66
2021/11/16 03:14:27;;;;;;;7.70;6.67;;;;;;;20.69;56.13;97849.47;4951140;28;20235;-66
2021/11/16 03:16:54;;;;;;;7.67;6.73;;;;;;;19.66;55.91;97674.47;4937562;28;20272;-66
2021/11/16 03:19:22;;;;;;;7.53;6.70;;;;;;;19.83;56.05;97698.94;4941748;28;20617;-69
2021/11/16 03:21:56;;;;;;;7.17;6.47;;;;;;;20.68;56.18;97850.25;4941747;28;20271;-65
2021/11/16 03:24:25;;;;;;;8.40;7.30;;;;;;;20.68;56.29;97856.25;4958472;28;20230;-67
2021/11/16 03:26:52;;;;;;;7.63;6.60;;;;;;;20.68;56.21;97847.72;4956178;28;20191;-67
2021/11/16 03:29:23;;;;;;;8.07;7.00;;;;;;;20.47;56.08;97818.81;4934655;28;20204;-65
2021/11/16 03:32:04;;;;;;;7.97;7.17;;;;;;;20.42;56.12;97805.00;4940599;28;20254;-66
2021/11/16 03:34:31;;;;;;;7.27;6.33;;;;;;;20.55;56.31;97830.19;4953137;28;20763;-65
2021/11/16 03:36:58;;;;;;;7.93;7.07;;;;;;;20.68;56.21;97856.25;4941636;28;20250;-65
2021/11/16 03:39:24;;;;;;;7.00;6.30;;;;;;;20.63;56.43;97855.19;4952564;28;20661;-66
2021/11/16 03:41:52;;;;;;;7.37;6.57;;;;;;;20.67;56.62;97858.75;4956167;28;20202;-65
2021/11/16 03:44:18;;;;;;;7.40;6.60;;;;;;;20.67;56.51;97859.63;4941076;28;20223;-65
2021/11/16 03:46:45;;;;;;;7.07;6.37;;;;;;;20.53;56.33;97844.56;4950501;28;20204;-67
2021/11/16 03:49:13;;;;;;;6.97;6.27;;;;;;;20.62;56.32;97860.25;4940278;28;20207;-65
2021/11/16 03:51:41;;;;;;;6.60;6.00;;;;;;;20.67;56.53;97869.84;4954800;28;20223;-65
2021/11/16 03:54:08;;;;;;;7.53;6.80;;;;;;;20.60;56.27;97833.81;4934973;28;20228;-65
2021/11/16 03:56:35;;;;;;;7.23;6.53;;;;;;;20.67;56.19;97846.88;4956484;28;20227;-64
2021/11/16 03:59:02;;;;;;;7.57;6.87;;;;;;;20.66;56.40;97857.03;4950505;28;20203;-66
2021/11/16 04:01:29;;;;;;;7.20;6.47;;;;;;;20.66;56.51;97847.66;4935195;28;20265;-65
2021/11/16 04:03:58;;;;;;;8.13;6.97;;;;;;;20.55;56.25;97833.63;4952806;28;20274;-66
2021/11/16 04:06:25;;;;;;;7.40;6.57;;;;;;;20.66;56.34;97847.66;4936017;28;20653;-65
2021/11/16 04:08:51;;;;;;;7.83;7.03;;;;;;;20.35;56.38;97801.34;4936414;28;20278;-63
2021/11/16 04:11:18;;;;;;;8.20;7.03;;;;;;;20.66;56.18;97864.69;4951559;28;20207;-69
2021/11/16 04:13:45;;;;;;;7.63;6.83;;;;;;;20.52;56.37;97827.53;4931149;28;20239;-65
2021/11/16 04:16:11;;;;;;;8.07;7.13;;;;;;;20.61;56.25;97830.44;4941142;28;20218;-65
2021/11/16 04:18:38;;;;;;;7.70;7.00;;;;;;;20.30;56.22;97782.44;4970510;28;20205;-65
2021/11/16 04:21:05;;;;;;;8.40;7.60;;;;;;;20.20;56.15;97780.34;4947167;28;20654;-66
2021/11/16 04:23:32;;;;;;;8.37;7.47;;;;;;;20.65;56.32;97840.81;4970559;28;20206;-65
2021/11/16 04:25:58;;;;;;;7.47;6.67;;;;;;;20.53;56.16;97835.25;4939406;28;20211;-66
2021/11/16 04:28:25;;;;;;;9.03;7.23;;;;;;;20.65;55.96;97855.25;4952012;28;20281;-65
2021/11/16 04:30:52;;;;;;;7.80;7.00;;;;;;;20.52;56.34;97827.53;4939750;28;20203;-67
2021/11/16 04:33:20;;;;;;;8.50;7.60;;;;;;;20.49;56.07;97825.69;4970451;28;20211;-65
2021/11/16 04:35:47;;;;;;;7.60;6.80;;;;;;;20.61;56.04;97841.53;4948763;28;20230;-65
2021/11/16 04:38:14;;;;;;;8.13;7.17;;;;;;;20.66;56.40;97846.81;4944904;28;20214;-64
2021/11/16 04:40:43;;;;;;;7.37;6.67;;;;;;;20.56;56.08;97832.81;4945738;28;20743;-65
2021/11/16 04:43:12;;;;;;;8.53;7.17;;;;;;;20.66;56.35;97854.47;4949728;28;20272;-64
2021/11/16 04:45:39;;;;;;;8.13;7.33;;;;;;;20.64;56.29;97864.63;4957669;28;20261;-69
2021/11/16 04:48:20;;;;;;;7.80;6.60;;;;;;;20.66;56.17;97862.13;4955608;28;20225;-70
2021/11/16 04:59:35;;;;;;;7.60;6.80;;;;;;;20.66;56.11;97844.25;4960322;28;20619;-65
2021/11/16 05:04:21;;;;;;;7.97;7.17;;;;;;;20.64;56.17;97848.41;4971761;28;20320;-65
2021/11/16 05:06:48;;;;;;;8.17;7.23;;;;;;;20.63;56.18;97837.31;4944764;28;20195;-67
2021/11/16 05:09:15;;;;;;;7.73;6.90;;;;;;;20.64;56.16;97835.66;4954675;28;20246;-65
2021/11/16 05:11:42;;;;;;;8.07;7.23;;;;;;;20.35;56.19;97787.72;4942207;28;20211;-64
2021/11/16 05:14:08;;;;;;;8.87;7.67;;;;;;;20.64;56.35;97830.53;5004503;22;21056;-62
2021/11/16 05:16:35;;;;;;;8.50;7.30;;;;;;;20.56;56.32;97822.59;4943518;28;20699;-62
2021/11/16 05:19:02;;;;;;;8.23;7.43;;;;;;;20.50;56.19;97821.47;4971790;28;20246;-62
2021/11/16 05:21:29;;;;;;;7.83;7.03;;;;;;;20.63;56.01;97846.69;4973516;28;20607;-62
2021/11/16 05:23:57;;;;;;;7.93;7.13;;;;;;;20.51;56.31;97823.22;4959955;28;20203;-62
2021/11/16 05:26:24;;;;;;;8.00;7.17;;;;;;;20.63;56.47;97850.09;4974495;28;20195;-62
2021/11/16 05:28:51;;;;;;;7.73;6.97;;;;;;;20.63;56.35;97842.44;4990902;28;20246;-62
2021/11/16 05:31:18;;;;;;;7.80;7.00;;;;;;;20.63;56.32;97839.03;4991857;28;20242;-62
2021/11/16 05:33:45;;;;;;;8.03;7.23;;;;;;;20.64;56.44;97839.09;4963085;28;20582;-62
2021/11/16 05:36:11;;;;;;;7.97;7.17;;;;;;;20.64;56.31;97845.88;4970891;28;20231;-62
2021/11/16 05:38:39;;;;;;;8.03;7.23;;;;;;;20.64;56.29;97848.41;4955336;28;20200;-62
2021/11/16 05:41:06;;;;;;;7.57;6.77;;;;;;;20.64;56.49;97846.75;4970244;28;20258;-62
2021/11/16 05:43:33;;;;;;;7.40;6.70;;;;;;;20.64;56.29;97849.31;4975747;28;20265;-62
2021/11/16 05:46:00;;;;;;;8.00;7.20;;;;;;;20.51;56.38;97826.66;4970353;28;20294;-62
2021/11/16 05:48:37;;;;;;;8.60;7.57;;;;;;;20.50;56.31;97824.91;4971283;28;20237;-62
2021/11/16 05:51:04;;;;;;;8.03;7.20;;;;;;;20.52;56.17;97830.06;4968350;28;20676;-62
2021/11/16 05:53:31;;;;;;;8.83;7.83;;;;;;;19.94;56.65;97717.22;4944044;28;20231;-61
2021/11/16 05:55:58;;;;;;;7.90;7.10;;;;;;;20.64;56.24;97856.06;4974686;28;20222;-62
2021/11/16 05:58:25;;;;;;;8.47;7.37;;;;;;;19.76;56.12;97713.94;4975305;28;20203;-62
2021/11/16 06:00:51;;;;;;;8.83;7.93;;;;;;;20.07;56.08;97746.63;4974932;28;20600;-63
2021/11/16 06:03:18;;;;;;;9.33;7.80;;;;;;;20.63;56.20;97837.31;4961602;28;20668;-62
2021/11/16 06:05:45;;;;;;;8.47;7.53;;;;;;;20.64;56.14;97853.53;4974473;28;20214;-62
2021/11/16 06:08:22;;;;;;;8.77;7.87;;;;;;;20.64;56.24;97844.19;4990859;28;20202;-62
2021/11/16 06:10:48;;;;;;;8.53;7.30;;;;;;;20.64;56.23;97853.53;4988532;28;20249;-62
2021/11/16 06:13:15;;;;;;;8.43;7.37;;;;;;;20.64;56.31;97856.97;4988237;28;20230;-62
2021/11/16 06:15:42;;;;;;;7.90;7.10;;;;;;;20.64;56.36;97856.06;4974068;28;20254;-62
2021/11/16 06:18:09;;;;;;;8.00;7.20;;;;;;;20.65;56.27;97857.81;4988715;28;20226;-61
2021/11/16 06:20:41;;;;;;;7.80;6.97;;;;;;;20.64;56.42;97862.06;4990393;28;20195;-61
2021/11/16 06:23:11;;;;;;;7.77;6.97;;;;;;;20.64;56.22;97862.06;4973248;28;20831;-63
2021/11/16 06:25:40;;;;;;;8.63;7.73;;;;;;;20.65;56.32;97870.56;4991047;28;20254;-62
2021/11/16 06:28:07;;;;;;;7.73;6.93;;;;;;;20.65;56.39;97863.78;4984562;28;20231;-62
2021/11/16 06:30:34;;;;;;;8.37;7.47;;;;;;;20.66;56.37;97865.53;4986230;28;20218;-63
2021/11/16 06:33:02;;;;;;;8.30;7.40;;;;;;;20.66;56.55;97864.69;4991091;28;20282;-62
2021/11/16 06:35:28;;;;;;;8.63;7.43;;;;;;;20.57;56.07;97852.41;4987564;28;20249;-62
2021/11/16 06:37:55;;;;;;;8.27;7.47;;;;;;;20.66;56.38;97865.53;4990762;28;20306;-62
2021/11/16 06:40:22;;;;;;;8.50;7.60;;;;;;;20.66;56.31;97875.75;4987603;28;20214;-61
2021/11/16 06:42:48;;;;;;;7.83;7.03;;;;;;;20.65;56.46;97866.34;4985662;28;20665;-62
2021/11/16 06:45:16;;;;;;;7.90;7.10;;;;;;;20.66;56.34;97874.91;4986500;28;20310;-62
2021/11/16 06:47:43;;;;;;;8.10;7.30;;;;;;;20.67;56.48;97886.84;4985565;28;20226;-62
2021/11/16 06:50:09;;;;;;;8.50;7.43;;;;;;;20.67;56.36;97884.28;4991403;28;20227;-62
2021/11/16 06:52:38;;;;;;;8.80;7.90;;;;;;;20.60;56.23;97872.97;4986459;28;20624;-62
2021/11/16 06:55:05;;;;;;;8.63;7.73;;;;;;;20.67;56.27;97881.72;4988975;28;20723;-62
2021/11/16 06:57:33;;;;;;;8.37;7.57;;;;;;;20.66;56.30;97891.06;4988864;28;20214;-62
2021/11/16 07:00:00;;;;;;;9.80;8.67;;;;;;;20.67;56.13;97889.41;4984599;28;20638;-63
2021/11/16 07:02:27;;;;;;;11.30;8.23;;;;;;;20.06;56.06;97778.91;4990140;28;20230;-62
2021/11/16 07:04:54;;;;;;;10.63;7.67;;;;;;;20.66;56.15;97877.44;4986516;28;20250;-62
2021/11/16 07:07:21;;;;;;;9.93;8.83;;;;;;;20.67;56.25;97877.50;4987593;28;20191;-62
2021/11/16 07:09:47;;;;;;;9.73;8.53;;;;;;;20.39;56.41;97830.41;4982994;28;20195;-62
2021/11/16 07:12:19;;;;;;;9.33;8.20;;;;;;;20.67;56.34;97887.72;4968279;28;20631;-62
2021/11/16 07:14:46;;;;;;;11.37;9.83;;;;;;;20.67;56.34;97884.28;4986504;28;20586;-62
2021/11/16 07:17:14;;;;;;;28.57;20.27;;;;;;;20.11;53.06;97790.19;4964681;28;20281;-62
2021/11/16 07:19:43;;;;;;;22.93;18.23;;;;;;;20.65;53.17;97879.13;4986775;28;20199;-62
2021/11/16 07:22:16;;;;;;;22.00;16.47;;;;;;;20.66;53.30;97887.66;4987540;28;20234;-62
2021/11/16 07:24:51;;;;;;;20.70;15.77;;;;;;;20.54;53.73;97871.88;4980237;28;20508;-62
2021/11/16 07:27:22;;;;;;;21.47;15.77;;;;;;;20.66;54.10;97885.13;4961615;28;20676;-61
2021/11/16 07:29:51;;;;;;;20.10;15.93;;;;;;;20.52;54.23;97866.66;4956062;28;20203;-61
2021/11/16 07:32:24;;;;;;;19.90;15.90;;;;;;;20.54;54.50;97869.31;4963308;28;20212;-60
2021/11/16 07:34:51;;;;;;;18.93;15.30;;;;;;;20.54;54.53;97869.31;4954716;28;20215;-61
2021/11/16 07:37:20;;;;;;;20.43;16.27;;;;;;;20.67;54.68;97897.94;4962515;28;20223;-61
2021/11/16 07:39:46;;;;;;;18.77;14.67;;;;;;;20.67;54.59;97899.59;4972457;28;20199;-61
2021/11/16 07:42:13;;;;;;;19.13;14.90;;;;;;;20.56;54.76;97872.78;4986345;28;20215;-61
2021/11/16 07:44:40;;;;;;;18.33;14.13;;;;;;;20.68;54.66;97901.34;4970153;28;20304;-61
2021/11/16 07:47:07;;;;;;;18.47;14.73;;;;;;;20.69;54.53;97910.78;4991595;28;20226;-61
2021/11/16 07:49:33;;;;;;;19.87;15.70;;;;;;;20.69;54.71;97905.66;4988305;28;20219;-61
2021/11/16 07:52:00;;;;;;;18.97;14.43;;;;;;;20.69;54.72;97926.94;4988555;28;20234;-61
2021/11/16 07:54:28;;;;;;;19.13;15.30;;;;;;;20.67;54.55;97920.94;4992259;28;20223;-61
2021/11/16 07:57:04;;;;;;;25.00;16.87;;;;;;;20.68;54.13;97919.22;4993192;28;20246;-66
2021/11/16 07:59:32;;;;;;;26.37;19.20;;;;;;;20.67;52.69;97922.59;4993186;28;20217;-61
2021/11/16 08:02:01;;;;;;;27.63;21.70;;;;;;;20.65;50.95;97919.97;4994344;28;20226;-61
2021/11/16 08:05:00;;;;;;;30.17;21.40;;;;;;;20.64;50.82;97914.81;4977237;28;20615;-61
2021/11/16 08:09:52;;;;;;;31.20;21.80;;;;;;;20.63;51.72;97929.25;4976018;28;20230;-61
2021/11/16 08:12:33;;;;;;;30.47;20.93;;;;;;;20.63;51.87;97918.19;4991672;28;20199;-61
2021/11/16 08:15:05;;;;;;;29.63;20.97;;;;;;;20.62;51.79;97919.88;4968694;28;20742;-61
2021/11/16 08:17:32;;;;;;;29.90;22.50;;;;;;;20.62;49.87;97926.63;4988084;28;20215;-61
2021/11/16 08:20:01;;;;;;;33.37;23.90;;;;;;;20.59;48.42;97917.19;4984951;28;20239;-61
2021/11/16 08:22:27;;;;;;;33.57;23.50;;;;;;;20.54;47.44;97911.03;4990606;28;20195;-61
2021/11/16 08:24:54;;;;;;;34.90;24.40;;;;;;;20.58;46.92;97924.78;4990071;28;20719;-61
2021/11/16 08:27:23;;;;;;;34.73;24.50;;;;;;;20.56;46.51;97929.84;4973286;28;20259;-61
2021/11/16 08:30:02;;;;;;;32.37;23.97;;;;;;;20.54;46.01;97931.44;4989465;28;20213;-62
2021/11/16 08:32:34;;;;;;;34.17;24.90;;;;;;;20.49;45.38;97925.28;4990859;28;20230;-61
2021/11/16 08:35:04;;;;;;;33.83;24.47;;;;;;;20.52;45.54;97927.94;4973098;28;20318;-61
2021/11/16 08:37:36;;;;;;;36.87;24.27;;;;;;;20.50;45.39;97921.06;4966728;28;20251;-61
2021/11/16 08:40:14;;;;;;;36.10;25.07;;;;;;;20.50;46.30;97927.03;4989971;28;20191;-61
2021/11/16 08:42:43;;;;;;;35.27;25.30;;;;;;;20.49;46.59;97925.28;4994395;28;20198;-62
2021/11/16 08:45:15;;;;;;;33.50;23.33;;;;;;;20.43;47.38;97907.16;4991736;28;20254;-61
2021/11/16 08:47:56;;;;;;;30.13;22.13;;;;;;;20.49;47.97;97915.06;4978948;28;20234;-62
2021/11/16 08:50:32;;;;;;;33.20;22.97;;;;;;;20.48;48.11;97905.69;4993205;28;20552;-61
2021/11/16 08:52:59;;;;;;;30.10;22.63;;;;;;;20.49;48.09;97904.00;4974463;28;20687;-61
2021/11/16 08:55:29;;;;;;;34.23;22.00;;;;;;;20.49;48.35;97904.00;4975969;28;20253;-62
2021/11/16 08:58:01;;;;;;;28.80;21.50;;;;;;;20.48;48.42;97903.13;4976061;28;20238;-62
2021/11/16 09:00:35;;;;;;;29.30;21.70;;;;;;;20.49;48.60;97901.44;4989861;28;20291;-61
2021/11/16 09:03:04;;;;;;;29.10;20.50;;;;;;;20.49;49.13;97904.84;4992211;28;20199;-61
2021/11/16 09:05:33;;;;;;;25.80;19.17;;;;;;;20.50;49.46;97914.28;4994932;28;20218;-61
2021/11/16 09:08:01;;;;;;;27.30;19.53;;;;;;;20.51;49.71;97918.56;4991792;28;20199;-61
2021/11/16 09:10:47;;;;;;;26.90;18.93;;;;;;;20.52;50.14;97917.75;4990808;28;20597;-61
2021/11/16 09:13:14;;;;;;;25.80;18.90;;;;;;;20.53;50.30;97931.38;4971014;28;20195;-61
2021/11/16 09:15:42;;;;;;;24.70;18.50;;;;;;;20.54;50.25;97933.16;4975086;28;20231;-61
2021/11/16 09:18:13;;;;;;;23.37;18.57;;;;;;;20.53;50.45;97934.81;4969764;28;20788;-61
2021/11/16 09:20:41;;;;;;;23.90;18.07;;;;;;;20.54;50.68;97926.34;4996843;28;20198;-61
2021/11/16 09:23:08;;;;;;;25.77;18.53;;;;;;;20.56;50.73;97931.50;4997391;28;20210;-61
2021/11/16 09:25:37;;;;;;;21.83;17.03;;;;;;;20.56;50.75;97923.84;4993008;28;20231;-60
2021/11/16 09:28:39;;;;;;;23.67;17.67;;;;;;;20.57;50.74;97926.47;4997248;28;20241;-61
2021/11/16 09:31:17;;;;;;;23.00;16.93;;;;;;;20.57;50.70;97926.47;4975656;28;20242;-61
2021/11/16 09:33:43;;;;;;;20.67;16.80;;;;;;;20.58;50.80;97928.22;4991455;28;20239;-61
2021/11/16 09:36:11;;;;;;;20.27;15.97;;;;;;;20.58;51.07;97928.22;4996576;28;20198;-61
2021/11/16 09:38:43;;;;;;;19.03;15.07;;;;;;;20.59;51.23;97934.19;4963496;28;20258;-61
2021/11/16 09:41:12;;;;;;;19.60;15.33;;;;;;;20.59;51.29;97937.63;4990883;28;20214;-61
2021/11/16 09:43:39;;;;;;;18.83;15.00;;;;;;;20.59;51.25;97929.06;4997071;28;20660;-61
2021/11/16 09:46:07;;;;;;;19.00;14.97;;;;;;;20.61;51.35;97927.47;4977587;28;20234;-62
2021/11/16 09:48:36;;;;;;;20.53;15.30;;;;;;;20.60;51.25;97931.69;4973741;28;20198;-62
2021/11/16 09:51:17;;;;;;;18.93;14.30;;;;;;;20.61;51.70;97938.56;4994488;28;20257;-61
2021/11/16 09:53:44;;;;;;;19.63;14.67;;;;;;;20.61;51.77;97938.56;4993790;28;20735;-61
2021/11/16 09:56:21;;;;;;;16.90;13.60;;;;;;;20.62;51.56;97936.84;4992498;28;20235;-61
2021/11/16 09:58:47;;;;;;;18.23;14.60;;;;;;;20.62;52.22;97942.84;4993308;28;20325;-61
2021/11/16 10:01:32;;;;;;;17.90;14.23;;;;;;;20.62;51.63;97940.28;4991201;28;20713;-61
2021/11/16 10:04:13;;;;;;;16.57;13.73;;;;;;;20.63;51.73;97936.91;4976652;28;21157;-61
2021/11/16 10:06:39;;;;;;;18.37;13.93;;;;;;;20.63;51.81;97941.19;4977444;28;20259;-61
2021/11/16 10:09:06;;;;;;;19.17;14.53;;;;;;;20.64;51.87;97940.34;4975424;28;20605;-61
2021/11/16 10:11:33;;;;;;;16.03;13.00;;;;;;;20.64;52.00;97936.13;4959423;28;20227;-61
2021/11/16 10:14:00;;;;;;;15.50;12.63;;;;;;;20.33;51.86;97871.88;4989242;28;20646;-61
2021/11/16 10:16:31;;;;;;;17.70;13.30;;;;;;;20.65;51.73;97924.22;4972486;28;20241;-61
2021/11/16 10:18:58;;;;;;;17.73;13.73;;;;;;;20.65;51.84;97926.75;4990414;28;20199;-62
2021/11/16 10:21:25;;;;;;;17.67;12.80;;;;;;;20.65;51.90;97921.66;4993456;28;20283;-61
2021/11/16 10:23:55;;;;;;;16.03;12.43;;;;;;;20.65;52.13;97921.66;4993434;28;20194;-61
2021/11/16 10:26:24;;;;;;;15.60;12.40;;;;;;;20.66;51.60;97920.88;4994170;28;20289;-62
2021/11/16 10:28:50;;;;;;;17.07;13.00;;;;;;;20.66;51.94;97931.09;4968589;28;20887;-61
2021/11/16 10:31:29;;;;;;;16.50;12.37;;;;;;;20.66;52.12;97931.94;4989303;28;20223;-61
2021/11/16 10:33:56;;;;;;;15.33;11.90;;;;;;;20.65;52.25;97930.19;4991727;28;20203;-60
2021/11/16 10:36:23;;;;;;;14.33;11.67;;;;;;;20.65;52.12;97935.31;4986823;28;20195;-61
2021/11/16 10:38:53;;;;;;;14.00;11.50;;;;;;;20.66;52.19;97921.72;4970247;28;20763;-61
2021/11/16 10:41:33;;;;;;;14.97;12.37;;;;;;;20.66;52.27;97919.16;4973243;28;20245;-62
2021/11/16 10:44:05;;;;;;;14.00;10.90;;;;;;;20.68;52.57;97916.66;4973302;28;20195;-61
2021/11/16 10:46:37;;;;;;;13.37;11.20;;;;;;;20.69;52.38;97923.53;4993635;28;20225;-61
2021/11/16 10:49:09;;;;;;;11.40;9.53;;;;;;;20.69;52.40;97914.16;4989228;28;20234;-61
2021/11/16 10:51:37;;;;;;;13.73;10.70;;;;;;;20.70;52.55;97918.50;4989573;28;20255;-61
2021/11/16 10:54:04;;;;;;;13.17;10.70;;;;;;;20.71;52.50;97919.34;4991429;28;20250;-61
2021/11/16 10:56:32;;;;;;;13.43;10.83;;;;;;;20.70;52.48;97908.28;4991141;28;20205;-62
2021/11/16 10:59:06;;;;;;;11.53;10.07;;;;;;;20.70;52.32;97904.84;4988798;28;20734;-61
2021/11/16 11:01:33;;;;;;;12.93;10.17;;;;;;;20.70;52.51;97904.84;4985275;28;20667;-60
2021/11/16 11:04:00;;;;;;;13.03;10.60;;;;;;;20.69;52.27;97901.41;4957801;28;20652;-61
2021/11/16 11:06:32;;;;;;;12.00;10.30;;;;;;;20.70;52.22;97907.38;4987752;28;20199;-61
2021/11/16 11:09:03;;;;;;;12.23;9.37;;;;;;;20.69;52.46;97898.84;4986981;28;20235;-61
2021/11/16 11:11:34;;;;;;;13.20;10.00;;;;;;;20.70;52.50;97912.50;4990943;28;20202;-61
2021/11/16 11:14:10;;;;;;;13.07;9.97;;;;;;;20.69;52.60;97895.44;4991086;28;20196;-61
2021/11/16 11:16:59;;;;;;;11.50;9.53;;;;;;;20.69;52.73;97893.75;5020840;23;20225;-65
2021/11/16 11:19:31;;;;;;;12.23;9.73;;;;;;;20.69;52.41;97888.63;4968564;28;20518;-66
2021/11/16 11:22:29;;;;;;;10.97;9.27;;;;;;;20.69;52.70;97890.34;4970794;28;20578;-66
2021/11/16 11:30:08;;;;;;;11.43;8.90;;;;;;;20.70;52.68;97889.50;5002912;28;20233;-71
2021/11/16 11:32:36;;;;;;;11.60;8.70;;;;;;;20.70;52.82;97887.84;5006138;28;20234;-69
2021/11/16 11:35:10;;;;;;;11.00;8.93;;;;;;;20.70;52.98;97880.19;5006813;28;20245;-68
2021/11/16 11:37:44;;;;;;;9.43;8.37;;;;;;;20.71;53.25;97883.59;5004402;28;20240;-66
2021/11/16 11:40:28;;;;;;;9.63;8.50;;;;;;;20.72;53.30;97877.69;4996812;28;20285;-72
2021/11/16 11:43:01;;;;;;;12.73;8.83;;;;;;;19.93;53.48;97754.59;5002294;28;20290;-66
2021/11/16 11:45:37;;;;;;;10.77;8.70;;;;;;;20.72;53.15;97867.47;5005877;28;20699;-64
2021/11/16 11:48:03;;;;;;;11.43;8.83;;;;;;;20.72;52.97;97875.13;5007750;28;20237;-68
2021/11/16 11:50:31;;;;;;;9.77;8.53;;;;;;;20.72;53.00;97875.97;5005223;28;20674;-65
2021/11/16 11:53:07;;;;;;;10.40;8.33;;;;;;;20.72;53.05;97875.13;5004857;28;20248;-70
2021/11/16 11:55:36;;;;;;;11.00;8.97;;;;;;;20.72;53.02;97873.41;4984182;28;20312;-66
2021/11/16 11:58:04;;;;;;;10.10;8.20;;;;;;;20.70;52.97;97867.41;5006580;28;20317;-68